Latest Weather Observations for Archerfield

IDQ60801

Issued at 2:05 pm EST Tuesday 2 September 2014 (issued every 30 minutes, with the page automatically refreshed every 10 minutes)

About weather observations | Map of weather stations | Latest weather observations for QLD | Other Formats
Station Details ID: 040211 Name: ARCHERFIELD AIRPORT Lat: -27.57 Lon: 153.01 Height: 12.5 m
Data from the previous 72 hours. | See also: Recent months at Archerfield
Date/Time
EST
Temp
°C
App
Temp
°C
Dew
Point
Rel
Hum
%
Delta-T
°C
Wind Press
QNH
hPa
Press
MSL
hPa
Rain
since 9 am
mm
Dir
 
Spd
km/h
Gust
km/h
Spd
kts
Gust
kts
02/02:00pm 28.6 24.6 8.3 28 11.1 NNW 19 33 10 18 1006.7 1006.6 0.0
02/01:30pm 26.6 24.1 8.1 31 10.0 N 11 20 6 11 1007.6 1007.5 0.0
02/01:00pm 25.0 22.9 9.7 38 8.4 NNW 11 17 6 9 1008.5 1008.4 0.0
02/12:30pm 24.8 22.4 9.9 39 8.2 N 13 19 7 10 1009.5 1009.4 0.0
02/12:00pm 23.7 22.1 8.9 39 8.0 NW 7 13 4 7 1010.2 1010.1 0.0
02/11:30am 22.4 21.1 9.2 43 7.1 W 6 15 3 8 1010.9 1010.8 0.0
02/11:00am 20.6 19.9 10.1 51 5.7 N 4 7 2 4 1011.7 1011.6 0.0
02/10:30am 19.7 19.9 10.7 56 4.9 CALM 0 7 0 4 1012.4 1012.3 0.0
02/10:00am 19.1 18.3 10.9 59 4.5 NE 6 9 3 5 1012.9 1012.8 0.0
02/09:30am 18.1 17.6 12.1 68 3.3 SSE 6 7 3 4 1013.4 1013.3 0.0
02/09:00am 17.4 17.6 11.9 70 3.0 NNE 2 6 1 3 1013.8 1013.7 0.0
02/08:30am 16.1 17.3 13.8 86 1.3 CALM 0 0 0 0 1013.9 1013.8 0.0
02/08:00am 15.0 15.8 13.7 92 0.7 S 2 6 1 3 1014.3 1014.2 0.0
02/07:30am 14.2 14.2 13.6 96 0.3 SE 6 7 3 4 1014.3 1014.2 0.0
02/07:00am 13.3 13.0 12.7 96 0.3 S 6 7 3 4 1014.1 1014.0 0.0
02/06:30am 12.8 12.2 12.2 96 0.3 S 7 9 4 5 1014.1 1014.0 0.0
02/06:00am 12.2 11.5 11.4 95 0.4 S 6 7 3 4 1014.0 1013.9 0.0
02/05:30am 12.5 13.0 11.6 94 0.5 CALM 0 0 0 0 1014.0 1013.9 0.0
02/05:00am 12.6 13.1 11.7 94 0.5 CALM 0 0 0 0 1013.8 1013.7 0.0
02/04:30am 12.9 13.5 12.0 94 0.5 CALM 0 0 0 0 1013.8 1013.7 0.0
02/04:00am 13.3 14.1 12.5 95 0.4 CALM 0 0 0 0 1014.0 1013.9 0.0
02/03:30am 13.1 13.8 12.3 95 0.4 CALM 0 0 0 0 1013.9 1013.8 0.0
02/03:00am 13.5 13.9 12.6 94 0.5 S 2 6 1 3 1014.0 1013.9 0.0
02/02:30am 13.6 14.5 12.8 95 0.4 CALM 0 7 0 4 1014.3 1014.2 0.0
02/02:23am 14.1 15.2 13.6 97 0.3 CALM 0 0 0 0 1014.2 1014.1 0.0
02/02:00am 12.9 13.5 12.0 94 0.5 CALM 0 0 0 0 1014.6 1014.5 0.0
02/01:45am 12.3 12.5 10.5 89 0.9 SW 0 0 0 0 1014.6 1014.5 0.0
02/01:30am 13.9 13.4 12.6 92 0.7 WSW 7 9 4 5 1014.6 1014.5 0.0
02/01:00am 14.5 14.3 13.0 91 0.8 W 6 9 3 5 1015.1 1015.0 0.0
02/12:30am 14.9 15.1 14.1 95 0.5 N 6 7 3 4 1015.3 1015.2 0.0
02/12:00am 14.5 13.4 13.0 91 0.8 N 11 13 6 7 1015.5 1015.4 0.0
 
Date/Time
EST
Temp
°C
App
Temp
°C
Dew
Point
Rel
Hum
%
Delta-T
°C
Wind Press
QNH
hPa
Press
MSL
hPa
Rain
since 9 am
mm
Dir
 
Spd
km/h
Gust
km/h
Spd
kts
Gust
kts
01/11:30pm 15.3 14.7 13.5 89 1.0 N 9 11 5 6 1015.5 1015.4 0.0
01/11:00pm 16.0 15.0 13.5 85 1.4 N 11 15 6 8 1015.5 1015.4 0.0
01/10:30pm 17.1 15.7 14.4 84 1.5 N 15 22 8 12 1015.4 1015.3 0.0
01/10:00pm 17.6 16.0 15.0 85 1.5 N 17 24 9 13 1015.4 1015.3 0.0
01/09:30pm 18.0 15.9 15.3 84 1.6 N 20 26 11 14 1015.6 1015.5 0.0
01/09:00pm 18.3 16.9 15.6 84 1.6 N 17 26 9 14 1015.8 1015.7 0.0
01/08:30pm 18.6 15.9 15.7 83 1.7 NNE 24 30 13 16 1015.8 1015.7 0.0
01/08:00pm 18.8 16.4 15.5 81 1.9 N 22 28 12 15 1015.8 1015.7 0.0
01/07:30pm 19.2 17.3 15.3 78 2.3 N 19 24 10 13 1016.1 1016.0 0.0
01/07:00pm 19.3 16.4 15.0 76 2.5 N 24 33 13 18 1015.7 1015.6 0.0
01/06:30pm 19.4 16.4 14.9 75 2.6 N 24 32 13 17 1015.4 1015.3 0.0
01/06:00pm 19.3 16.2 14.6 74 2.7 N 24 32 13 17 1015.2 1015.1 0.0
01/05:30pm 20.0 16.5 14.4 70 3.3 N 26 35 14 19 1015.1 1015.0 0.0
01/05:00pm 21.1 18.1 13.8 63 4.2 NNE 22 35 12 19 1015.2 1015.1 0.0
01/04:30pm 22.0 18.2 13.6 59 4.9 N 26 33 14 18 1014.8 1014.7 0.0
01/04:00pm 22.8 18.9 13.3 55 5.5 NNE 26 32 14 17 1014.4 1014.3 0.0
01/03:30pm 23.5 19.3 12.5 50 6.3 NNE 26 32 14 17 1014.3 1014.2 0.0
01/03:00pm 24.1 20.3 12.4 48 6.7 N 24 32 13 17 1014.6 1014.5 0.0
01/02:30pm 25.1 21.6 12.3 45 7.3 N 22 32 12 17 1014.7 1014.6 0.0
01/02:00pm 25.1 22.3 12.7 46 7.2 N 19 24 10 13 1015.0 1014.9 0.0
01/01:30pm 25.2 23.4 12.1 44 7.5 N 13 19 7 10 1015.5 1015.4 0.0
01/01:00pm 24.8 22.6 10.7 41 7.9 WNW 13 26 7 14 1016.1 1016.0 0.0
01/12:30pm 25.1 22.9 9.4 37 8.6 NW 11 20 6 11 1016.5 1016.4 0.0
01/12:00pm 24.7 24.3 12.3 46 7.1 W 6 9 3 5 1016.9 1016.8 0.0
01/11:30am 24.3 24.2 13.8 52 6.2 NNW 7 13 4 7 1017.6 1017.5 0.0
01/11:00am 22.6 21.4 12.8 54 5.6 N 11 20 6 11 1018.3 1018.2 0.0
01/10:30am 22.7 22.5 13.7 56 5.2 W 7 9 4 5 1018.9 1018.8 0.0
01/10:00am 21.7 21.8 13.9 61 4.5 W 6 11 3 6 1019.3 1019.2 0.0
01/09:30am 20.6 20.7 13.8 65 3.9 WSW 6 9 3 5 1019.6 1019.6 0.0
01/09:00am 19.5 19.7 14.1 71 3.1 W 6 9 3 5 1019.8 1019.8 0.0
01/08:30am 18.2 18.2 14.1 77 2.4 S 7 11 4 6 1019.8 1019.8 0.0
01/08:00am 16.8 16.7 13.9 83 1.6 S 7 11 4 6 1019.8 1019.8 0.0
01/07:30am 15.5 16.7 13.9 90 0.9 CALM 0 0 0 0 1019.3 1019.3 0.0
01/07:00am 14.0 15.0 13.1 94 0.5 CALM 0 0 0 0 1019.2 1019.2 0.0
01/06:30am 12.6 12.4 11.8 95 0.4 S 4 6 2 3 1018.9 1018.9 0.0
01/06:00am 11.6 11.5 10.7 94 0.5 SSW 2 6 1 3 1018.9 1018.9 0.0
01/05:30am 12.3 11.6 11.4 94 0.5 S 6 7 3 4 1018.4 1018.4 0.0
01/05:00am 12.9 12.4 12.0 94 0.5 SSE 6 7 3 4 1018.0 1018.0 0.0
01/04:30am 12.5 12.9 11.1 91 0.7 CALM 0 4 0 2 1018.1 1018.1 0.0
01/04:00am 13.3 13.5 11.9 91 0.7 SSE 2 6 1 3 1018.0 1018.0 0.0
01/03:30am 13.8 14.4 12.0 89 1.0 CALM 0 0 0 0 1018.0 1018.0 0.0
01/03:00am 14.5 15.5 13.2 92 0.7 CALM 0 0 0 0 1018.2 1018.2 0.0
01/02:30am 14.1 13.9 13.1 94 0.6 SW 6 7 3 4 1018.2 1018.2 0.0
01/02:00am 13.4 13.7 12.3 93 0.6 W 2 6 1 3 1018.3 1018.3 0.0
01/01:30am 14.2 13.4 12.9 92 0.7 SSE 9 11 5 6 1018.4 1018.4 0.0
01/01:00am 14.5 15.3 12.7 89 1.0 CALM 0 0 0 0 1018.5 1018.5 0.0
01/12:30am 14.5 15.5 13.2 92 0.7 CALM 0 0 0 0 1018.6 1018.6 0.0
01/12:00am 14.1 14.7 12.0 87 1.1 CALM 0 0 0 0 1018.7 1018.7 0.0
 
Date/Time
EST
Temp
°C
App
Temp
°C
Dew
Point
Rel
Hum
%
Delta-T
°C
Wind Press
QNH
hPa
Press
MSL
hPa
Rain
since 9 am
mm
Dir
 
Spd
km/h
Gust
km/h
Spd
kts
Gust
kts
31/11:30pm 14.8 15.8 13.2 90 0.9 CALM 0 0 0 0 1018.8 1018.8 0.0
31/11:00pm 14.8 15.2 12.5 86 1.3 E 2 6 1 3 1018.8 1018.8 0.0
31/10:30pm 16.0 17.2 13.7 86 1.3 CALM 0 0 0 0 1018.8 1018.8 0.0
31/10:00pm 16.0 17.2 13.7 86 1.3 CALM 0 0 0 0 1018.8 1018.8 0.0
31/09:30pm 16.2 17.3 13.5 84 1.5 CALM 0 2 0 1 1018.6 1018.6 0.0
31/09:00pm 16.5 16.2 13.4 82 1.7 NE 7 9 4 5 1018.5 1018.5 0.0
31/08:30pm 16.9 16.7 13.6 81 1.9 NNE 7 9 4 5 1018.5 1018.5 0.0
31/08:00pm 17.4 16.9 13.7 79 2.1 NNE 9 11 5 6 1018.3 1018.3 0.0
31/07:30pm 18.2 16.8 13.5 74 2.7 ENE 13 19 7 10 1018.2 1018.2 0.0
31/07:00pm 18.8 17.5 13.6 72 3.0 ENE 13 17 7 9 1017.8 1017.8 0.0
31/06:30pm 19.0 17.2 13.2 69 3.3 ENE 15 19 8 10 1017.4 1017.4 0.0
31/06:00pm 19.4 17.1 12.9 66 3.7 ENE 17 22 9 12 1017.1 1017.1 0.0
31/05:30pm 19.9 17.5 12.7 63 4.1 ENE 17 22 9 12 1016.7 1016.7 0.0
31/05:00pm 20.8 17.8 12.5 59 4.7 NE 20 28 11 15 1016.3 1016.3 0.0
31/04:30pm 21.4 18.9 12.3 56 5.1 NNE 17 24 9 13 1016.0 1016.0 0.0
31/04:00pm 22.4 19.2 11.8 51 5.9 NE 20 26 11 14 1015.6 1015.6 0.0
31/03:30pm 22.3 18.6 11.4 50 6.1 ENE 22 28 12 15 1015.4 1015.4 0.0
31/03:00pm 22.5 18.9 10.6 47 6.5 NE 20 24 11 13 1015.2 1015.2 0.0
31/02:30pm 23.7 22.6 10.0 42 7.5 WNW 6 9 3 5 1015.2 1015.2 0.0
31/02:00pm 25.1 23.2 10.6 40 8.1 N 11 17 6 9 1015.4 1015.4 0.0
31/01:30pm 24.4 23.0 9.6 39 8.1 W 7 11 4 6 1015.7 1015.7 0.0
31/01:00pm 24.1 21.6 9.7 40 7.9 WSW 13 19 7 10 1016.1 1016.1 0.0
31/12:30pm 24.3 21.9 11.3 44 7.3 W 15 20 8 11 1016.6 1016.6 0.0
31/12:00pm 23.7 23.1 11.7 47 6.8 ESE 6 11 3 6 1017.1 1017.1 0.0
31/11:30am 23.0 22.0 11.1 47 6.6 SSE 7 17 4 9 1017.6 1017.6 0.0
31/11:00am 22.1 19.8 10.3 47 6.4 S 13 20 7 11 1018.1 1018.1 0.0
31/10:30am 21.7 19.6 11.1 51 5.9 SW 13 20 7 11 1018.6 1018.6 0.0
31/10:00am 20.8 18.8 10.0 50 5.8 WSW 11 22 6 12 1018.9 1018.9 0.0
31/09:30am 19.9 17.6 10.3 54 5.2 WSW 13 19 7 10 1019.0 1019.0 0.0
31/09:00am 19.3 17.0 10.6 57 4.7 WSW 13 17 7 9 1019.2 1019.2 0.0
31/08:30am 18.3 16.0 10.4 60 4.2 SW 13 17 7 9 1019.4 1019.4 0.0
31/08:00am 16.3 15.2 11.9 75 2.4 S 9 13 5 7 1019.3 1019.3 0.0
31/07:30am 14.7 13.6 11.8 83 1.6 S 9 13 5 7 1019.1 1019.1 0.0
31/07:00am 13.4 12.7 12.0 91 0.7 S 7 11 4 6 1019.0 1019.0 0.0
31/06:30am 10.7 10.6 9.3 91 0.7 CALM 0 0 0 0 1018.9 1018.9 0.0
31/06:00am 11.5 10.4 10.1 91 0.7 S 6 7 3 4 1018.7 1018.7 0.0
31/05:30am 12.5 11.6 10.6 88 1.0 SSE 6 7 3 4 1018.2 1018.2 0.0
31/05:00am 12.8 11.9 10.5 86 1.2 S 6 6 3 3 1018.1 1018.1 0.0
31/04:30am 13.4 13.1 11.3 87 1.1 SSE 4 7 2 4 1018.1 1018.1 0.0
31/04:00am 13.2 13.6 11.4 89 1.0 CALM 0 0 0 0 1018.1 1018.1 0.0
31/03:30am 13.1 13.1 11.2 88 1.0 SSW 2 6 1 3 1017.9 1017.9 0.0
31/03:00am 13.2 12.2 11.1 87 1.1 SSW 7 7 4 4 1017.9 1017.9 0.0
31/02:30am 14.4 14.1 11.6 83 1.5 SSE 4 7 2 4 1018.0 1018.0 0.0
31/02:00am 14.4 15.1 12.1 86 1.2 CALM 0 0 0 0 1018.1 1018.1 0.0
31/01:30am 13.7 14.1 11.2 85 1.3 CALM 0 0 0 0 1018.1 1018.1 0.0
31/01:00am 13.9 14.3 11.2 84 1.4 CALM 0 0 0 0 1018.2 1018.2 0.0
31/12:30am 14.5 13.8 11.5 82 1.6 S 6 7 3 4 1018.3 1018.3 0.0
31/12:00am 14.1 13.3 11.8 86 1.2 SSW 7 7 4 4 1018.4 1018.4 0.0
 
Date/Time
EST
Temp
°C
App
Temp
°C
Dew
Point
Rel
Hum
%
Delta-T
°C
Wind Press
QNH
hPa
Press
MSL
hPa
Rain
since 9 am
mm
Dir
 
Spd
km/h
Gust
km/h
Spd
kts
Gust
kts
30/11:30pm 15.4 15.3 12.2 81 1.7 S 4 7 2 4 1018.5 1018.5 0.0
30/11:00pm 15.7 16.3 11.9 78 2.1 CALM 0 0 0 0 1018.6 1018.6 0.0
30/10:30pm 15.0 15.6 11.8 81 1.7 CALM 0 0 0 0 1018.5 1018.5 0.0
30/10:00pm 15.1 15.4 10.9 76 2.2 CALM 0 0 0 0 1018.4 1018.4 0.0
30/09:30pm 15.7 15.0 11.5 76 2.3 NNE 6 7 3 4 1018.3 1018.3 0.0
30/09:00pm 15.2 14.3 11.2 77 2.1 N 7 9 4 5 1018.3 1018.3 0.0
30/08:30pm 14.5 13.0 10.7 78 2.0 N 9 9 5 5 1018.4 1018.4 0.0
30/08:00pm 15.4 14.3 10.6 73 2.5 N 7 9 4 5 1018.3 1018.3 0.0
30/07:30pm 15.6 14.2 10.8 73 2.5 NNE 9 11 5 6 1018.0 1018.0 0.0
30/07:00pm 15.7 14.2 10.5 71 2.7 NNE 9 9 5 5 1017.7 1017.7 0.0
30/06:30pm 15.8 14.3 10.6 71 2.8 N 9 13 5 7 1017.3 1017.3 0.0
30/06:00pm 16.5 14.5 10.1 66 3.4 N 11 13 6 7 1017.2 1017.2 0.0
30/05:30pm 18.6 16.4 10.7 60 4.3 NE 13 17 7 9 1017.1 1017.1 0.0
30/05:00pm 20.0 16.8 10.1 53 5.3 ENE 17 24 9 13 1016.9 1016.9 0.0
30/04:30pm 21.3 17.7 9.9 48 6.2 NNE 19 26 10 14 1016.6 1016.6 0.0
30/04:00pm 22.3 18.5 9.8 45 6.8 NE 20 22 11 12 1016.2 1016.2 0.0
30/03:30pm 22.4 19.3 8.9 42 7.2 S 15 19 8 10 1016.0 1016.0 0.0
30/03:00pm 22.7 19.6 8.8 41 7.4 SSE 15 24 8 13 1016.0 1016.0 0.0
30/02:30pm 23.5 20.5 9.1 40 7.8 S 15 24 8 13 1016.1 1016.1 0.0

Other Formats:

Comma delimited format used in spreadsheet applications
http://www.bom.gov.au/fwo/IDQ60801/IDQ60801.94575.axf

JavaScript Object Notation format (JSON) in row-major order
http://www.bom.gov.au/fwo/IDQ60801/IDQ60801.94575.json